Time;durP1;ratioP1;P1;durP2;ratioP2;P2;SDS_P1;SDS_P2;PMS_P1;PMS_P2;Temp;Humidity;BMP_temperature;BMP_pressure;BME280_temperature;BME280_humidity;BME280_pressure;Samples;Min_cycle;Max_cycle;Signal;HPM_P1;HPM_P2
2022/02/20 00:01:05;;;;;;;5.43;1.20;;;;;;;2.24;58.39;95901.76;1724032;83;21007;-66
2022/02/20 00:03:32;;;;;;;1.47;0.83;;;;;;;2.21;57.84;95904.31;1723912;83;21026;-66
2022/02/20 00:05:59;;;;;;;5.47;0.80;;;;;;;2.17;58.27;95913.80;1724030;83;20999;-66
2022/02/20 00:08:26;;;;;;;2.50;0.70;;;;;;;2.21;57.42;95903.01;1723958;82;21070;-67
2022/02/20 00:10:53;;;;;;;1.40;0.53;;;;;;;2.24;57.10;95909.56;1723612;82;21042;-67
2022/02/20 00:13:19;;;;;;;1.33;0.83;;;;;;;2.27;57.11;95908.31;1724085;83;21019;-66
2022/02/20 00:15:46;;;;;;;2.83;0.67;;;;;;;2.26;56.37;95900.94;1723999;83;20971;-66
2022/02/20 00:18:12;;;;;;;4.30;0.87;;;;;;;2.22;56.85;95906.95;1723900;83;21090;-66
2022/02/20 00:20:39;;;;;;;2.03;0.80;;;;;;;2.19;57.47;95897.77;1724106;83;21035;-66
2022/02/20 00:23:05;;;;;;;1.53;0.90;;;;;;;2.19;57.60;95894.29;1724091;82;21489;-67
2022/02/20 00:25:34;;;;;;;1.30;0.50;;;;;;;2.12;57.38;95894.19;1723898;83;21066;-66
2022/02/20 00:28:03;;;;;;;2.17;0.77;;;;;;;2.06;56.97;95893.19;1724054;83;21050;-67
2022/02/20 00:30:30;;;;;;;1.70;0.60;;;;;;;2.06;57.86;95886.25;1724022;83;21037;-67
2022/02/20 00:32:58;;;;;;;1.53;0.70;;;;;;;2.02;57.98;95879.68;1723852;83;20991;-67
2022/02/20 00:35:27;;;;;;;1.80;0.70;;;;;;;1.96;58.08;95877.81;1724033;83;21038;-67
2022/02/20 00:37:55;;;;;;;2.30;1.00;;;;;;;1.98;57.74;95878.73;1724069;83;21074;-66
2022/02/20 00:40:23;;;;;;;3.10;0.80;;;;;;;2.03;56.96;95873.18;1724264;83;21074;-66
2022/02/20 00:42:51;;;;;;;2.83;0.83;;;;;;;2.02;56.87;95875.34;1724025;83;21002;-66
2022/02/20 00:45:18;;;;;;;1.70;0.63;;;;;;;2.04;58.14;95875.36;1723962;83;22244;-66
2022/02/20 00:47:45;;;;;;;3.10;1.10;;;;;;;2.00;57.95;95873.13;1724258;83;21505;-66
2022/02/20 00:50:12;;;;;;;2.37;0.60;;;;;;;1.99;57.48;95874.39;1724328;83;21041;-66
2022/02/20 00:52:39;;;;;;;3.57;0.90;;;;;;;1.98;57.84;95880.03;1695445;83;21449;-67
2022/02/20 00:55:08;;;;;;;1.77;0.70;;;;;;;1.94;58.05;95876.50;1724127;82;21019;-66
2022/02/20 00:57:35;;;;;;;2.83;0.60;;;;;;;1.93;58.74;95878.63;1724137;83;21018;-67
2022/02/20 01:00:06;;;;;;;2.33;0.60;;;;;;;1.95;58.68;95879.55;1724040;83;21026;-67
2022/02/20 01:02:33;;;;;;;2.33;1.37;;;;;;;1.93;58.68;95881.23;1724163;83;21046;-67
2022/02/20 01:05:00;;;;;;;7.67;3.83;;;;;;;1.88;58.58;95879.40;1724195;83;21012;-66
2022/02/20 01:07:26;;;;;;;5.27;2.43;;;;;;;1.84;58.54;95878.88;1724279;83;21015;-66
2022/02/20 01:09:53;;;;;;;3.87;0.97;;;;;;;1.86;58.33;95883.69;1725815;83;21584;-67
2022/02/20 01:12:20;;;;;;;5.60;0.80;;;;;;;1.81;58.38;95877.52;1729721;82;21046;-67
2022/02/20 01:14:46;;;;;;;1.80;0.90;;;;;;;1.78;58.82;95890.05;1729254;83;21501;-67
2022/02/20 01:17:14;;;;;;;2.50;1.00;;;;;;;1.70;61.12;95879.48;1729603;82;21033;-67
2022/02/20 01:19:41;;;;;;;2.30;0.80;;;;;;;1.60;60.95;95889.25;1729588;83;21089;-67
2022/02/20 01:22:09;;;;;;;1.60;0.70;;;;;;;1.61;60.53;95874.52;1729555;82;21034;-67
2022/02/20 01:24:36;;;;;;;1.77;1.00;;;;;;;1.61;60.37;95871.48;1729534;82;21030;-67
2022/02/20 01:27:03;;;;;;;2.47;1.00;;;;;;;1.62;59.89;95868.48;1729524;82;21034;-66
2022/02/20 01:29:30;;;;;;;4.77;2.20;;;;;;;1.56;59.43;95868.34;1729516;83;21031;-66
2022/02/20 01:31:57;;;;;;;4.00;1.13;;;;;;;1.53;59.48;95866.56;1729601;83;21030;-66
2022/02/20 01:34:23;;;;;;;2.87;0.70;;;;;;;1.50;59.63;95867.38;1729249;83;21042;-66
2022/02/20 01:36:51;;;;;;;3.27;0.90;;;;;;;1.48;59.43;95850.86;1729510;82;21046;-66
2022/02/20 01:39:19;;;;;;;2.30;0.83;;;;;;;1.43;59.61;95856.39;1729316;83;21050;-67
2022/02/20 01:41:46;;;;;;;3.03;0.97;;;;;;;1.41;60.15;95852.91;1729456;83;21042;-66
2022/02/20 01:44:12;;;;;;;1.33;0.90;;;;;;;1.42;60.02;95852.05;1729436;83;21588;-67
2022/02/20 01:46:47;;;;;;;4.57;1.33;;;;;;;1.34;60.42;95852.31;1729352;83;21050;-66
2022/02/20 01:49:16;;;;;;;3.33;1.30;;;;;;;1.34;61.79;95851.45;1729251;83;21126;-66
2022/02/20 01:51:45;;;;;;;3.73;1.10;;;;;;;1.28;61.00;95843.95;1729555;83;21059;-67
2022/02/20 01:54:12;;;;;;;4.47;1.00;;;;;;;1.26;60.66;95842.16;1729497;82;20978;-66
2022/02/20 01:56:40;;;;;;;6.97;0.97;;;;;;;1.21;60.77;95830.79;1729183;83;21039;-66
2022/02/20 01:59:09;;;;;;;2.47;0.93;;;;;;;1.14;60.70;95836.73;1727375;83;21026;-66
2022/02/20 02:01:55;;;;;;;3.57;1.80;;;;;;;1.11;61.39;95831.44;1729389;82;20995;-66
2022/02/20 02:04:24;;;;;;;7.27;1.67;;;;;;;1.04;63.76;95835.22;1728973;83;21488;-66
2022/02/20 02:06:55;;;;;;;1.37;0.73;;;;;;;0.95;62.88;95840.20;1727580;83;21066;-66
2022/02/20 02:09:40;;;;;;;1.17;0.70;;;;;;;0.96;63.38;95830.28;1729437;82;21015;-67
2022/02/20 02:12:09;;;;;;;3.83;0.87;;;;;;;0.96;62.46;95828.98;1711412;83;21042;-67
2022/02/20 02:14:59;;;;;;;3.17;0.97;;;;;;;0.93;62.30;95828.02;1728010;83;21089;-67
2022/02/20 02:17:27;;;;;;;3.53;1.10;;;;;;;0.92;62.17;95822.38;1711554;83;21067;-66
2022/02/20 02:19:58;;;;;;;3.70;1.00;;;;;;;0.90;61.91;95818.87;1727300;83;21512;-66
2022/02/20 02:22:35;;;;;;;5.17;1.20;;;;;;;0.84;63.78;95819.19;1715457;83;21063;-66
2022/02/20 02:25:16;;;;;;;1.23;0.60;;;;;;;0.79;64.83;95824.70;1727163;83;20983;-66
2022/02/20 02:27:47;;;;;;;2.10;0.70;;;;;;;0.73;62.89;95822.38;1728302;83;21038;-66
2022/02/20 02:30:18;;;;;;;2.77;0.70;;;;;;;0.73;62.90;95818.48;1714158;83;20971;-67
2022/02/20 02:32:45;;;;;;;2.13;1.00;;;;;;;0.71;63.02;95815.87;1729543;83;21066;-66
2022/02/20 02:35:11;;;;;;;2.90;0.60;;;;;;;0.74;62.58;95815.06;1702900;83;21034;-66
2022/02/20 02:37:38;;;;;;;1.70;0.60;;;;;;;0.75;62.35;95803.81;1729513;83;21062;-66
2022/02/20 02:40:06;;;;;;;3.13;0.50;;;;;;;0.71;62.16;95814.57;1729665;83;21042;-66
2022/02/20 02:42:33;;;;;;;2.83;0.60;;;;;;;0.69;61.98;95814.95;1702906;83;21544;-66
2022/02/20 02:45:00;;;;;;;1.57;0.60;;;;;;;0.65;61.87;95814.41;1729427;82;21005;-66
2022/02/20 02:47:27;;;;;;;4.83;0.83;;;;;;;0.64;61.86;95817.86;1729511;83;21082;-66
2022/02/20 02:49:53;;;;;;;1.57;0.60;;;;;;;0.62;61.63;95813.91;1729580;83;20995;-66
2022/02/20 02:52:19;;;;;;;2.17;0.40;;;;;;;0.57;62.03;95817.26;1729450;83;21034;-66
2022/02/20 02:54:47;;;;;;;1.10;0.80;;;;;;;0.51;62.11;95813.23;1729489;83;20979;-67
2022/02/20 02:57:14;;;;;;;2.37;0.50;;;;;;;0.32;63.76;95819.27;1729403;83;21512;-66
2022/02/20 02:59:40;;;;;;;3.30;0.70;;;;;;;0.25;62.77;95813.88;1729348;83;21014;-67
2022/02/20 03:02:08;;;;;;;2.97;0.70;;;;;;;0.24;62.58;95810.42;1729552;83;21022;-66
2022/02/20 03:04:35;;;;;;;3.77;0.90;;;;;;;0.21;62.49;95812.52;1729572;83;21498;-66
2022/02/20 03:07:04;;;;;;;1.67;0.43;;;;;;;0.13;62.70;95814.05;1729115;83;21026;-66
2022/02/20 03:09:31;;;;;;;1.60;0.63;;;;;;;0.17;62.66;95811.10;1729586;83;21058;-66
2022/02/20 03:11:57;;;;;;;3.83;0.60;;;;;;;0.19;62.74;95819.81;1724106;82;21022;-66
2022/02/20 03:14:26;;;;;;;1.77;0.53;;;;;;;0.21;62.50;95810.35;1723904;83;21042;-66
2022/02/20 03:16:54;;;;;;;1.20;0.43;;;;;;;0.21;62.53;95814.24;1723901;83;21019;-66
2022/02/20 03:19:20;;;;;;;1.53;0.50;;;;;;;0.17;62.46;95817.59;1724001;83;21054;-67
2022/02/20 03:21:47;;;;;;;2.13;0.50;;;;;;;0.21;62.49;95812.52;1723599;82;21042;-66
2022/02/20 03:24:15;;;;;;;2.27;0.97;;;;;;;0.20;63.36;95812.47;1723575;83;21465;-66
2022/02/20 03:26:42;;;;;;;2.90;0.50;;;;;;;0.19;62.75;95803.81;1724216;82;21101;-66
2022/02/20 03:29:10;;;;;;;3.70;0.70;;;;;;;0.22;63.15;95804.31;1724082;83;21042;-66
2022/02/20 03:31:36;;;;;;;2.17;0.70;;;;;;;0.18;62.47;95805.97;1723991;83;21038;-66
2022/02/20 03:34:04;;;;;;;4.17;1.43;;;;;;;0.18;62.70;95802.50;1723943;83;21055;-67
2022/02/20 03:36:32;;;;;;;2.37;1.03;;;;;;;0.13;62.68;95793.73;1724006;82;21528;-67
2022/02/20 03:38:59;;;;;;;3.63;1.00;;;;;;;0.08;63.06;95797.92;1724004;83;21026;-66
2022/02/20 03:41:27;;;;;;;3.20;0.93;;;;;;;-0.02;63.71;95787.31;1723515;83;21520;-66
2022/02/20 03:43:54;;;;;;;6.23;2.80;;;;;;;0.01;63.56;95783.91;1724145;83;21007;-66
2022/02/20 03:46:22;;;;;;;5.10;1.60;;;;;;;0.02;63.32;95779.17;1723697;83;21054;-66
2022/02/20 03:48:54;;;;;;;5.87;2.50;;;;;;;-0.04;63.22;95779.91;1723164;83;21018;-66
2022/02/20 03:51:25;;;;;;;7.03;2.43;;;;;;;-0.07;64.20;95782.85;1721514;83;21038;-66
2022/02/20 03:53:51;;;;;;;5.20;2.97;;;;;;;-0.17;65.15;95789.52;1724200;82;21070;-66
2022/02/20 03:56:18;;;;;;;4.37;1.80;;;;;;;-0.20;65.66;95788.14;1723989;83;21134;-66
2022/02/20 03:58:46;;;;;;;7.27;2.47;;;;;;;-0.30;65.17;95783.14;1723617;83;21026;-66
2022/02/20 04:01:13;;;;;;;5.07;2.20;;;;;;;-0.30;65.14;95772.77;1723911;82;20995;-66
2022/02/20 04:03:45;;;;;;;9.20;3.00;;;;;;;-0.35;64.89;95767.88;1723955;83;20979;-66
2022/02/20 04:06:11;;;;;;;4.43;1.87;;;;;;;-0.39;64.78;95763.44;1724067;83;21066;-66
2022/02/20 04:08:40;;;;;;;4.40;1.90;;;;;;;-0.45;65.24;95758.98;1723219;83;21011;-66
2022/02/20 04:11:07;;;;;;;6.80;1.37;;;;;;;-0.52;66.33;95763.97;1697871;83;21046;-66
2022/02/20 04:13:42;;;;;;;3.63;1.10;;;;;;;-0.45;65.74;95769.34;1726049;83;21046;-66
2022/02/20 04:16:10;;;;;;;2.87;1.50;;;;;;;-0.37;65.43;95764.79;1726556;83;21118;-67
2022/02/20 04:18:38;;;;;;;7.43;1.97;;;;;;;-0.31;65.92;95764.51;1727282;83;21070;-66
2022/02/20 04:21:13;;;;;;;6.87;2.73;;;;;;;-0.27;66.47;95764.19;1726845;83;21513;-66
2022/02/20 04:23:40;;;;;;;5.00;1.30;;;;;;;-0.21;66.13;95764.33;1727272;83;20999;-66
2022/02/20 04:26:07;;;;;;;5.03;2.10;;;;;;;-0.23;65.34;95757.83;1727236;83;21067;-66
2022/02/20 04:28:34;;;;;;;4.57;1.40;;;;;;;-0.16;65.48;95760.56;1727370;83;21022;-66
2022/02/20 04:31:01;;;;;;;3.70;1.20;;;;;;;-0.20;64.57;95754.83;1727086;83;21074;-66
2022/02/20 04:33:28;;;;;;;5.03;1.93;;;;;;;-0.30;64.68;95747.27;1727354;83;21045;-66
2022/02/20 04:35:56;;;;;;;3.20;1.50;;;;;;;-0.28;65.83;95746.86;1727114;83;21007;-66
2022/02/20 04:38:23;;;;;;;6.00;1.93;;;;;;;-0.27;66.29;95753.39;1727163;83;21516;-66
2022/02/20 04:40:50;;;;;;;4.60;1.03;;;;;;;-0.34;65.87;95753.20;1727223;83;20991;-66
2022/02/20 04:43:19;;;;;;;6.00;2.30;;;;;;;-0.27;65.89;95754.69;1726942;83;21029;-66
2022/02/20 04:45:47;;;;;;;4.33;1.93;;;;;;;-0.21;66.28;95761.73;1727173;83;21070;-66
2022/02/20 04:48:15;;;;;;;8.00;3.27;;;;;;;-0.18;67.08;95760.51;1727060;83;21477;-66
2022/02/20 04:50:42;;;;;;;6.83;3.40;;;;;;;-0.31;67.40;95757.16;1727224;83;21057;-67
2022/02/20 04:53:14;;;;;;;4.40;1.47;;;;;;;-0.33;67.14;95754.94;1727248;83;21030;-66
2022/02/20 04:55:42;;;;;;;12.10;4.47;;;;;;;-0.26;67.75;95756.43;1727395;83;21069;-66
2022/02/20 04:58:09;;;;;;;5.40;2.10;;;;;;;-0.15;66.95;95768.78;1727207;83;21488;-66
2022/02/20 05:00:36;;;;;;;4.33;1.43;;;;;;;-0.13;66.65;95758.91;1727062;83;21528;-66
2022/02/20 05:03:03;;;;;;;4.50;1.67;;;;;;;-0.07;66.11;95755.62;1727223;83;21102;-66
2022/02/20 05:05:37;;;;;;;7.23;3.23;;;;;;;-0.04;65.56;95759.15;1722815;83;21046;-67
2022/02/20 05:08:06;;;;;;;4.00;1.50;;;;;;;-0.05;65.55;95760.00;1727230;83;21042;-66
2022/02/20 05:10:33;;;;;;;2.23;1.37;;;;;;;-0.03;65.05;95753.11;1726757;83;21044;-66
2022/02/20 05:12:59;;;;;;;3.17;1.27;;;;;;;-0.07;64.89;95756.91;1695411;83;21017;-66
2022/02/20 05:15:26;;;;;;;6.93;1.57;;;;;;;-0.09;66.20;95763.34;1724056;83;21506;-66
2022/02/20 05:17:54;;;;;;;9.83;3.47;;;;;;;-0.07;67.05;95766.86;1723830;83;21548;-66
2022/02/20 05:20:22;;;;;;;5.43;2.20;;;;;;;-0.06;66.89;95765.14;1724000;83;21568;-66
2022/02/20 05:22:50;;;;;;;3.43;1.17;;;;;;;-0.06;66.47;95764.71;1724049;83;21046;-66
2022/02/20 05:25:17;;;;;;;5.93;1.77;;;;;;;-0.03;66.03;95762.19;1724415;82;21051;-66
2022/02/20 05:27:45;;;;;;;3.37;1.37;;;;;;;0.02;65.76;95762.30;1723989;83;21063;-66
2022/02/20 05:30:13;;;;;;;9.73;2.20;;;;;;;0.01;66.87;95764.45;1724196;83;21469;-66
2022/02/20 05:32:40;;;;;;;3.03;1.47;;;;;;;-0.04;66.95;95768.66;1723809;82;21070;-67
2022/02/20 05:35:15;;;;;;;3.67;1.97;;;;;;;-0.08;66.69;95768.11;1722704;83;21054;-66
2022/02/20 05:37:48;;;;;;;7.53;3.00;;;;;;;-0.09;67.78;95765.94;1724092;83;21587;-66
2022/02/20 05:40:19;;;;;;;14.17;5.20;;;;;;;-0.17;67.77;95762.71;1724212;82;21521;-66
2022/02/20 05:42:59;;;;;;;56.97;22.17;;;;;;;-0.24;69.02;95763.84;1724150;83;21019;-66
2022/02/20 05:45:28;;;;;;;75.17;25.97;;;;;;;-0.21;68.35;95761.73;1724301;82;21063;-66
2022/02/20 05:47:56;;;;;;;5.97;2.43;;;;;;;-0.16;68.07;95756.25;1723913;82;21458;-66
2022/02/20 05:50:25;;;;;;;28.37;10.93;;;;;;;-0.10;67.38;95762.91;1724257;82;21027;-66
2022/02/20 05:52:51;;;;;;;41.03;15.27;;;;;;;-0.02;67.35;95764.39;1724281;83;21054;-66
2022/02/20 05:55:20;;;;;;;58.27;22.33;;;;;;;0.03;67.97;95773.59;1724080;82;21014;-66
2022/02/20 05:57:50;;;;;;;117.13;45.70;;;;;;;0.02;68.18;95769.22;1724033;83;21011;-66
2022/02/20 06:00:25;;;;;;;73.93;28.87;;;;;;;0.07;67.51;95766.31;1723708;83;21541;-66
2022/02/20 06:02:55;;;;;;;113.77;42.47;;;;;;;0.03;67.66;95758.89;1724055;82;21581;-66
2022/02/20 06:05:24;;;;;;;118.77;45.17;;;;;;;0.06;67.55;95765.44;1723414;83;21055;-66
2022/02/20 06:07:55;;;;;;;92.57;36.77;;;;;;;0.08;67.75;95771.98;1705859;83;21058;-66
2022/02/20 06:10:26;;;;;;;90.63;36.67;;;;;;;0.06;68.26;95774.52;1723531;83;21046;-66
2022/02/20 06:13:13;;;;;;;14.13;5.37;;;;;;;0.02;68.09;95780.47;1721563;83;21035;-66
2022/02/20 06:15:41;;;;;;;24.10;9.57;;;;;;;0.09;67.78;95783.67;1720753;83;21081;-66
2022/02/20 06:18:12;;;;;;;82.37;33.23;;;;;;;0.05;68.26;95782.25;1723480;83;21054;-66
2022/02/20 06:20:50;;;;;;;95.77;37.40;;;;;;;0.02;68.87;95780.47;1655896;86;21563;-66
2022/02/20 06:23:22;;;;;;;84.93;35.83;;;;;;;0.01;69.01;95790.83;1724004;83;21051;-66
2022/02/20 06:26:07;;;;;;;52.90;22.13;;;;;;;0.06;68.34;95795.70;1724039;83;21054;-66
2022/02/20 06:28:34;;;;;;;50.00;20.63;;;;;;;0.13;68.19;95792.00;1724129;83;21501;-66
2022/02/20 06:31:02;;;;;;;55.07;25.73;;;;;;;0.22;67.66;95793.92;1723914;82;21043;-67
2022/02/20 06:33:30;;;;;;;78.33;32.83;;;;;;;0.22;67.46;95795.23;1724141;83;21505;-67
2022/02/20 06:35:59;;;;;;;92.00;40.83;;;;;;;0.19;67.03;95790.84;1723477;83;21520;-66
2022/02/20 06:38:26;;;;;;;77.40;33.63;;;;;;;0.18;67.35;95787.80;1724111;82;21039;-67
2022/02/20 06:40:54;;;;;;;88.37;37.43;;;;;;;0.25;67.31;95792.70;1724018;82;21034;-66
2022/02/20 06:43:23;;;;;;;89.63;38.27;;;;;;;0.28;68.61;95802.27;1695053;83;21548;-66
2022/02/20 06:45:51;;;;;;;89.00;41.97;;;;;;;0.35;68.67;95797.69;1719700;83;21010;-66
2022/02/20 06:48:36;;;;;;;108.23;52.10;;;;;;;0.45;68.16;95797.06;1723915;83;20992;-66
2022/02/20 06:51:04;;;;;;;111.93;52.13;;;;;;;0.54;67.65;95802.48;1722124;83;21046;-66
2022/02/20 06:53:36;;;;;;;143.20;59.30;;;;;;;0.59;67.74;95805.20;1720953;83;21027;-66
2022/02/20 06:56:19;;;;;;;125.53;56.63;;;;;;;0.57;67.11;95807.74;1722170;83;21078;-66
2022/02/20 06:58:46;;;;;;;138.67;59.77;;;;;;;0.46;66.45;95805.76;1723857;82;21023;-66
2022/02/20 07:01:13;;;;;;;83.30;38.63;;;;;;;0.47;67.27;95810.09;1724014;83;21035;-66
2022/02/20 07:03:39;;;;;;;57.87;28.43;;;;;;;0.51;67.76;95810.21;1724117;82;21074;-66
2022/02/20 07:06:07;;;;;;;45.87;22.17;;;;;;;0.59;67.48;95800.87;1723960;83;21031;-66
2022/02/20 07:08:34;;;;;;;42.57;20.37;;;;;;;0.70;68.00;95796.34;1724117;83;21070;-66
2022/02/20 07:11:01;;;;;;;49.67;23.83;;;;;;;0.70;68.46;95797.21;1724401;83;20975;-67
2022/02/20 07:13:27;;;;;;;56.60;25.73;;;;;;;0.74;67.47;95793.85;1729444;83;21062;-67
2022/02/20 07:15:54;;;;;;;77.53;38.97;;;;;;;0.85;67.36;95798.84;1729438;82;21050;-67
2022/02/20 07:18:22;;;;;;;70.77;36.40;;;;;;;1.02;66.23;95791.86;1729235;83;21583;-67
2022/02/20 07:20:49;;;;;;;45.10;25.23;;;;;;;1.24;66.77;95786.69;1729587;82;20979;-67
2022/02/20 07:23:16;;;;;;;47.40;23.40;;;;;;;1.48;65.58;95774.58;1729437;83;21057;-66
2022/02/20 07:25:42;;;;;;;35.23;18.60;;;;;;;1.63;64.16;95776.17;1729365;82;21533;-66
2022/02/20 07:28:10;;;;;;;26.57;14.90;;;;;;;1.68;63.99;95770.63;1729478;83;21006;-66
2022/02/20 07:30:36;;;;;;;35.63;18.67;;;;;;;1.71;62.53;95776.31;1729650;82;21019;-66
2022/02/20 07:33:05;;;;;;;29.70;16.47;;;;;;;1.75;63.24;95775.53;1729410;82;21453;-66
2022/02/20 07:35:32;;;;;;;31.03;15.90;;;;;;;1.84;62.95;95779.61;1729558;82;21528;-66
2022/02/20 07:38:00;;;;;;;53.50;26.60;;;;;;;1.98;62.64;95779.84;1729453;82;21066;-66
2022/02/20 07:40:27;;;;;;;52.73;25.67;;;;;;;2.12;62.77;95783.56;1729451;83;21034;-66
2022/02/20 07:42:55;;;;;;;27.17;13.80;;;;;;;2.28;62.60;95781.21;1729458;83;21042;-66
2022/02/20 07:45:23;;;;;;;24.40;13.30;;;;;;;2.38;62.12;95790.48;1729433;82;21015;-66
2022/02/20 07:47:59;;;;;;;15.63;8.87;;;;;;;2.52;61.25;95797.63;1729307;82;20999;-67
2022/02/20 07:50:34;;;;;;;11.83;7.07;;;;;;;2.63;60.81;95790.88;1729463;83;21027;-66
2022/02/20 07:53:02;;;;;;;12.07;6.53;;;;;;;2.70;58.92;95790.12;1729505;83;21041;-69
2022/02/20 07:55:29;;;;;;;12.60;6.27;;;;;;;2.79;57.83;95792.84;1729595;82;21539;-67
2022/02/20 07:57:59;;;;;;;9.23;5.90;;;;;;;2.86;56.94;95786.44;1729589;82;21014;-67
2022/02/20 08:00:30;;;;;;;13.17;6.10;;;;;;;2.89;56.95;95773.00;1729722;82;21496;-66
2022/02/20 08:02:54;;;;;;;10.53;6.33;;;;;;;2.90;57.27;95772.17;1728930;83;21529;-67
2022/02/20 08:05:20;;;;;;;13.17;6.97;;;;;;;2.94;57.10;95767.42;1729785;82;21086;-67
2022/02/20 08:07:46;;;;;;;14.23;7.77;;;;;;;2.98;57.13;95765.32;1729652;82;21010;-67
2022/02/20 08:10:13;;;;;;;17.13;9.73;;;;;;;3.00;56.96;95757.10;1729856;83;21512;-67
2022/02/20 08:12:40;;;;;;;12.60;6.57;;;;;;;3.03;56.77;95763.65;1729525;83;21500;-67
2022/02/20 08:15:08;;;;;;;14.20;6.40;;;;;;;3.05;56.47;95762.38;1729590;83;21045;-67
2022/02/20 08:17:43;;;;;;;10.40;5.03;;;;;;;3.08;56.19;95753.29;1729307;83;21026;-67
2022/02/20 08:20:12;;;;;;;10.60;5.50;;;;;;;3.11;55.84;95745.50;1729696;83;21019;-67
2022/02/20 08:22:39;;;;;;;15.30;9.00;;;;;;;3.14;56.55;95746.83;1729659;83;21014;-67
2022/02/20 08:25:06;;;;;;;27.33;15.60;;;;;;;3.20;56.60;95745.63;1729665;83;21034;-67
2022/02/20 08:27:35;;;;;;;32.67;18.17;;;;;;;3.28;56.91;95748.33;1729592;82;21066;-67
2022/02/20 08:30:05;;;;;;;31.67;17.93;;;;;;;3.35;57.12;95750.55;1729609;82;21535;-67
2022/02/20 08:32:32;;;;;;;30.47;14.87;;;;;;;3.40;57.46;95751.08;1729514;82;21013;-67
2022/02/20 08:34:59;;;;;;;17.93;10.13;;;;;;;3.45;57.88;95753.31;1729571;83;21077;-67
2022/02/20 08:37:26;;;;;;;19.37;9.93;;;;;;;3.51;58.08;95768.58;1729540;82;20975;-67
2022/02/20 08:39:53;;;;;;;23.40;11.20;;;;;;;3.53;57.83;95762.52;1729626;83;21046;-67
2022/02/20 08:42:21;;;;;;;18.07;9.40;;;;;;;3.55;57.59;95757.30;1729622;83;21045;-67
2022/02/20 08:44:48;;;;;;;19.97;11.57;;;;;;;3.60;57.63;95757.83;1729502;83;21058;-67
2022/02/20 08:47:14;;;;;;;45.20;33.17;;;;;;;3.61;56.98;95763.91;1729485;82;21082;-67
2022/02/20 08:49:40;;;;;;;25.70;15.43;;;;;;;3.62;56.92;95763.91;1729574;83;21026;-67
2022/02/20 08:52:11;;;;;;;21.27;12.10;;;;;;;3.64;56.93;95758.28;1729643;82;21033;-67
2022/02/20 08:54:36;;;;;;;8.70;6.00;;;;;;;3.68;57.04;95753.56;1729570;82;21536;-67
2022/02/20 08:57:07;;;;;;;11.30;6.00;;;;;;;3.75;56.84;95749.25;1729536;82;21561;-67
2022/02/20 08:59:31;;;;;;;16.60;7.43;;;;;;;3.81;56.35;95751.95;1729222;83;21058;-67
2022/02/20 09:01:58;;;;;;;13.57;7.73;;;;;;;3.88;56.69;95751.16;1729555;83;21062;-69
2022/02/20 09:04:24;;;;;;;9.90;5.87;;;;;;;3.96;57.01;95747.30;1729621;82;21066;-67
2022/02/20 09:06:54;;;;;;;10.77;5.90;;;;;;;3.99;55.57;95752.98;1729620;83;20987;-67
2022/02/20 09:09:21;;;;;;;7.43;4.40;;;;;;;4.03;55.66;95752.13;1729584;83;21022;-67
2022/02/20 09:11:48;;;;;;;12.63;5.90;;;;;;;4.05;55.38;95755.20;1728195;83;21043;-67
2022/02/20 09:14:15;;;;;;;9.83;5.90;;;;;;;4.04;55.63;95761.30;1724233;82;21034;-67
2022/02/20 09:16:42;;;;;;;8.97;5.20;;;;;;;4.04;55.98;95754.77;1724061;82;21505;-67
2022/02/20 09:19:09;;;;;;;12.70;6.20;;;;;;;4.05;56.38;95756.95;1723919;83;21509;-67
2022/02/20 09:21:36;;;;;;;9.17;4.87;;;;;;;4.03;55.85;95756.95;1724090;83;21493;-67
2022/02/20 09:24:03;;;;;;;9.80;4.40;;;;;;;4.05;55.70;95753.89;1724168;83;21062;-67
2022/02/20 09:26:30;;;;;;;8.70;4.40;;;;;;;4.08;55.69;95755.66;1723999;83;21525;-67
2022/02/20 09:28:56;;;;;;;12.73;6.50;;;;;;;4.26;56.54;95745.83;1724101;82;21469;-67
2022/02/20 09:31:23;;;;;;;6.23;2.90;;;;;;;4.68;56.92;95730.00;1724024;82;21066;-67
2022/02/20 09:33:50;;;;;;;6.93;2.90;;;;;;;5.17;53.97;95718.08;1724008;82;21022;-67
2022/02/20 09:36:17;;;;;;;5.37;2.93;;;;;;;5.57;54.32;95717.34;1723940;83;21018;-67
2022/02/20 09:38:43;;;;;;;5.50;2.50;;;;;;;5.91;53.04;95720.89;1724084;83;21018;-67
2022/02/20 09:41:12;;;;;;;4.57;2.60;;;;;;;6.24;53.30;95720.08;1724205;82;21003;-67
2022/02/20 09:43:41;;;;;;;8.90;3.50;;;;;;;6.52;52.65;95713.95;1723832;83;21038;-68
2022/02/20 09:46:08;;;;;;;10.63;4.80;;;;;;;6.76;49.99;95710.00;1724060;83;20979;-68
2022/02/20 09:48:36;;;;;;;6.73;3.40;;;;;;;6.97;47.18;95713.44;1723869;83;21497;-68
2022/02/20 09:51:03;;;;;;;8.27;3.03;;;;;;;7.19;49.28;95711.63;1724212;82;21019;-68
2022/02/20 09:53:33;;;;;;;4.90;2.40;;;;;;;7.29;48.13;95714.20;1724089;83;21552;-68
2022/02/20 09:56:00;;;;;;;5.57;2.10;;;;;;;7.46;47.99;95719.81;1724126;83;21493;-68
2022/02/20 09:58:27;;;;;;;5.40;1.90;;;;;;;7.45;43.06;95736.01;1724063;82;21035;-68
2022/02/20 10:01:06;;;;;;;4.30;1.80;;;;;;;7.40;41.42;95731.22;1724151;83;21444;-68
2022/02/20 10:03:37;;;;;;;2.73;1.60;;;;;;;7.50;43.39;95737.30;1724010;83;21023;-68
2022/02/20 10:06:09;;;;;;;6.00;1.63;;;;;;;7.53;40.16;95727.69;1724196;83;21067;-68
2022/02/20 10:08:40;;;;;;;2.27;0.80;;;;;;;7.65;39.24;95714.05;1724024;83;21057;-67
2022/02/20 10:11:22;;;;;;;2.37;0.77;;;;;;;7.61;35.53;95707.95;1723021;83;20995;-67
2022/02/20 10:13:53;;;;;;;3.37;0.90;;;;;;;7.58;36.57;95704.90;1728970;83;21030;-67
2022/02/20 10:16:27;;;;;;;1.50;0.60;;;;;;;7.52;35.96;95707.98;1729748;82;21010;-67
2022/02/20 10:19:02;;;;;;;1.43;0.60;;;;;;;7.47;34.52;95699.26;1729367;83;21049;-67
2022/02/20 10:21:39;;;;;;;3.03;0.50;;;;;;;7.30;33.52;95698.88;1688618;85;21045;-67
2022/02/20 10:24:25;;;;;;;3.23;1.07;;;;;;;7.25;33.24;95698.02;1729368;83;21546;-68
2022/02/20 10:27:10;;;;;;;1.37;0.70;;;;;;;7.24;34.12;95691.05;1729602;82;21026;-67
2022/02/20 10:30:18;;;;;;;2.47;0.57;;;;;;;7.25;33.30;95694.09;1729373;83;20992;-67
2022/02/20 10:32:52;;;;;;;3.17;1.00;;;;;;;7.31;34.03;95691.45;1729384;83;20987;-68
2022/02/20 10:35:17;;;;;;;2.17;0.90;;;;;;;7.35;33.20;95684.42;1727098;83;21029;-68
2022/02/20 10:37:44;;;;;;;4.50;1.10;;;;;;;7.45;34.48;95688.75;1729668;82;21050;-68
2022/02/20 10:40:27;;;;;;;2.73;1.00;;;;;;;7.48;33.59;95688.73;1729574;83;21038;-68
2022/02/20 10:42:57;;;;;;;3.35;1.70;;;;;;;7.56;35.33;95680.84;1729752;83;21087;-68
2022/02/20 10:45:37;;;;;;;8.07;1.57;;;;;;;7.65;34.88;95678.14;1729689;83;21030;-68
2022/02/20 10:48:18;;;;;;;3.03;0.90;;;;;;;7.71;35.95;95678.54;1730026;82;21472;-68
2022/02/20 10:50:56;;;;;;;1.50;0.60;;;;;;;7.62;33.23;95683.42;1729590;83;21042;-67
2022/02/20 10:53:32;;;;;;;1.10;0.57;;;;;;;7.56;33.90;95679.08;1729541;82;21528;-67
2022/02/20 10:56:02;;;;;;;1.70;0.87;;;;;;;7.47;33.74;95682.19;1729426;82;21026;-67
2022/02/20 10:58:34;;;;;;;1.23;0.60;;;;;;;7.39;33.63;95681.37;1729487;82;20994;-67
2022/02/20 11:01:03;;;;;;;4.17;1.23;;;;;;;7.33;32.53;95687.49;1729501;82;21022;-67
2022/02/20 11:03:36;;;;;;;5.70;1.50;;;;;;;7.25;33.49;95673.54;1729346;83;21014;-67
2022/02/20 11:06:03;;;;;;;3.57;1.20;;;;;;;7.23;34.96;95670.94;1729491;82;21564;-67
2022/02/20 11:08:30;;;;;;;2.90;1.30;;;;;;;7.21;34.93;95670.07;1729454;83;21492;-67
2022/02/20 11:10:57;;;;;;;5.20;1.90;;;;;;;7.20;32.99;95666.13;1729317;83;21038;-67
2022/02/20 11:13:25;;;;;;;5.70;2.40;;;;;;;7.18;33.29;95660.88;1729363;82;21528;-67
2022/02/20 11:15:54;;;;;;;1.50;0.77;;;;;;;7.19;33.54;95658.70;1729441;83;21038;-67
2022/02/20 11:18:22;;;;;;;3.87;0.83;;;;;;;7.14;32.57;95660.03;1729223;83;21014;-67
2022/02/20 11:20:52;;;;;;;1.27;1.10;;;;;;;7.37;32.71;95653.80;1729563;82;21034;-67
2022/02/20 11:23:27;;;;;;;2.17;1.40;;;;;;;8.33;33.86;95639.09;1729490;83;21002;-67
2022/02/20 11:25:56;;;;;;;2.27;0.80;;;;;;;9.37;33.09;95629.63;1729412;82;21066;-65
2022/02/20 11:28:24;;;;;;;2.10;0.90;;;;;;;10.16;30.52;95617.05;1729555;82;21549;-65
2022/02/20 11:30:50;;;;;;;1.95;0.55;;;;;;;10.91;32.63;95614.84;1729367;83;21058;-65
2022/02/20 11:33:19;;;;;;;2.92;0.80;;;;;;;11.64;30.54;95608.03;1729352;83;21018;-65
2022/02/20 11:35:50;;;;;;;1.27;0.88;;;;;;;12.32;28.27;95609.08;1729615;82;21497;-65
2022/02/20 11:38:20;;;;;;;1.80;1.07;;;;;;;12.65;24.52;95593.23;1729444;83;21066;-65
2022/02/20 11:41:02;;;;;;;3.12;1.27;;;;;;;12.80;23.50;95590.20;1729562;83;21034;-65
2022/02/20 11:43:47;;;;;;;1.30;0.62;;;;;;;13.07;22.86;95585.89;1729667;83;21030;-66
2022/02/20 11:46:22;;;;;;;1.62;0.70;;;;;;;13.57;23.98;95574.29;1729378;83;21003;-66